Yonaguni Jima

Current Flights

Info
Name: Yonaguni Jima
Identifier:  OGN/ROYN
Local Time:  24. May 20:57
City
Yonaguni Jima
  Japan

Flights per Day
3 flights
Distance: 198km (123mi)
Punctuality
92% (0 flights per day delayed)
Delay Average: 13 minutes
Current Weather
 27 C (Humidity: 65%)
  10kt (18km/h / 11mph) from 120°
  9km (6 mi.)
 NC
 METAR ROYN 241000Z AUTO 12010KT 9999 NCD 27/20 Q1012

Current Delays

Departures
N/A
Arrivals
N/A

Destinations

Top Destinations
Airport Flights
per week
Seats
per week
  Ishigaki (ISG) <1 - 0 0

Airlines & Planes

Top Airlines
Airline Flights
per Day
Seats
per Day
  FDA - Fuji Dream Airlines <1 -
Top Plane Types
Manufacturer Model Flights Seats
Embraer E175 0.0/day - 0